createdAt,value
2017-12-31T00:00:38.903Z,83.00
2017-12-31T00:03:06.503Z,82.70
2017-12-31T00:05:35.503Z,82.00
2017-12-31T00:08:04.185Z,81.40
2017-12-31T00:10:31.782Z,81.00
2017-12-31T00:13:00.166Z,82.30
2017-12-31T00:15:27.753Z,81.90
2017-12-31T00:17:55.338Z,81.20
2017-12-31T00:20:22.949Z,81.10
2017-12-31T00:22:51.288Z,80.50
2017-12-31T00:25:18.900Z,80.50
2017-12-31T00:27:46.482Z,80.30
2017-12-31T00:30:14.099Z,80.50
2017-12-31T00:32:41.686Z,80.70
2017-12-31T00:35:09.265Z,80.60
2017-12-31T00:37:36.882Z,80.80
2017-12-31T00:40:05.187Z,79.80
2017-12-31T00:42:35.122Z,80.80
2017-12-31T00:45:03.838Z,80.70
2017-12-31T00:47:31.453Z,81.00
2017-12-31T00:49:59.802Z,81.10
2017-12-31T00:52:27.384Z,81.00
2017-12-31T00:54:55.032Z,81.30
2017-12-31T00:57:23.381Z,81.40
2017-12-31T00:59:50.990Z,81.40
2017-12-31T01:02:18.645Z,81.60
2017-12-31T01:04:46.278Z,80.70
2017-12-31T01:07:13.861Z,81.30
2017-12-31T01:09:41.445Z,80.40
2017-12-31T01:12:09.050Z,81.00
2017-12-31T01:14:36.616Z,81.40
2017-12-31T01:17:05.653Z,81.30
2017-12-31T01:19:34.413Z,81.40
2017-12-31T01:22:02.042Z,81.40
2017-12-31T01:24:29.622Z,80.80
2017-12-31T01:26:57.201Z,81.30
2017-12-31T01:29:24.799Z,81.10
2017-12-31T01:31:52.373Z,80.40
2017-12-31T01:34:19.989Z,80.30
2017-12-31T01:36:47.562Z,81.50
2017-12-31T01:39:15.181Z,81.80
2017-12-31T01:41:43.531Z,82.10
2017-12-31T01:44:11.117Z,82.00
2017-12-31T01:46:38.731Z,81.70
2017-12-31T01:49:06.327Z,81.80
2017-12-31T01:51:33.933Z,81.60
2017-12-31T01:54:02.349Z,82.10
2017-12-31T01:56:30.729Z,81.80
2017-12-31T01:58:58.315Z,81.70
2017-12-31T02:01:25.905Z,82.00
2017-12-31T02:03:53.513Z,83.20
2017-12-31T02:06:21.867Z,82.90
2017-12-31T02:08:49.475Z,82.80
2017-12-31T02:11:17.114Z,82.40
2017-12-31T02:13:44.726Z,82.60
2017-12-31T02:16:12.318Z,83.20
2017-12-31T02:18:39.901Z,82.40
2017-12-31T02:21:07.505Z,82.90
2017-12-31T02:23:35.078Z,83.10
2017-12-31T02:26:04.251Z,83.10
2017-12-31T02:28:31.908Z,83.20
2017-12-31T02:30:59.530Z,82.30
2017-12-31T02:33:27.111Z,82.50
2017-12-31T02:35:55.460Z,82.20
2017-12-31T02:38:23.059Z,82.10
2017-12-31T02:40:50.642Z,81.80
2017-12-31T02:43:18.249Z,82.10
2017-12-31T02:45:45.821Z,82.40
2017-12-31T02:48:14.226Z,81.90
2017-12-31T02:50:41.818Z,81.80
2017-12-31T02:53:09.401Z,82.00
2017-12-31T02:55:37.014Z,82.00
2017-12-31T02:58:05.412Z,81.80
2017-12-31T03:00:34.634Z,81.80
2017-12-31T03:03:02.226Z,81.80
2017-12-31T03:05:29.832Z,82.00
2017-12-31T03:07:58.180Z,82.00
2017-12-31T03:10:25.782Z,81.90
2017-12-31T03:12:53.411Z,82.50
2017-12-31T03:15:21.755Z,83.40
2017-12-31T03:17:49.355Z,83.30
2017-12-31T03:20:16.943Z,83.50
2017-12-31T03:22:44.559Z,83.90
2017-12-31T03:25:12.136Z,84.30
2017-12-31T03:27:39.721Z,84.40
2017-12-31T03:30:07.340Z,84.60
2017-12-31T03:32:35.876Z,84.80
2017-12-31T03:35:04.810Z,84.70
2017-12-31T03:37:32.403Z,84.70
2017-12-31T03:40:00.778Z,85.20
2017-12-31T03:42:28.367Z,85.20
2017-12-31T03:44:55.963Z,85.20
2017-12-31T03:47:24.330Z,85.60
2017-12-31T03:49:51.902Z,85.50
2017-12-31T03:52:19.545Z,86.30
2017-12-31T03:54:47.952Z,86.60
2017-12-31T03:57:16.304Z,86.60
2017-12-31T03:59:43.918Z,86.60
2017-12-31T04:02:11.507Z,86.60
2017-12-31T04:04:39.131Z,87.00
2017-12-31T04:07:06.726Z,86.90
2017-12-31T04:09:35.562Z,87.00
2017-12-31T04:12:03.625Z,86.60
2017-12-31T04:14:32.147Z,86.70
2017-12-31T04:16:59.770Z,86.70
2017-12-31T04:19:27.378Z,87.10
2017-12-31T04:21:55.747Z,87.30
2017-12-31T04:24:24.094Z,87.10
2017-12-31T04:26:51.716Z,87.10
2017-12-31T04:29:19.317Z,86.80
2017-12-31T04:31:46.906Z,86.10
2017-12-31T04:34:14.513Z,86.00
2017-12-31T04:36:42.089Z,85.60
2017-12-31T04:39:09.719Z,85.60
2017-12-31T04:41:37.302Z,85.70
2017-12-31T04:44:05.590Z,85.60
2017-12-31T04:46:34.123Z,85.80
2017-12-31T04:49:01.698Z,86.30
2017-12-31T04:51:29.307Z,86.30
2017-12-31T04:53:57.716Z,86.00
2017-12-31T04:56:26.102Z,86.10
2017-12-31T04:58:53.676Z,86.10
2017-12-31T05:01:21.298Z,86.00
2017-12-31T05:03:49.679Z,85.90
2017-12-31T05:06:17.274Z,85.80
2017-12-31T05:08:44.887Z,86.10
2017-12-31T05:11:12.478Z,86.90
2017-12-31T05:13:40.101Z,85.90
2017-12-31T05:16:07.688Z,86.10
2017-12-31T05:18:35.335Z,85.90
2017-12-31T05:21:04.568Z,86.10
2017-12-31T05:23:32.157Z,85.10
2017-12-31T05:25:59.764Z,85.20
2017-12-31T05:28:27.354Z,85.00
2017-12-31T05:30:54.969Z,84.80
2017-12-31T05:33:22.576Z,84.80
2017-12-31T05:35:50.927Z,84.40
2017-12-31T05:38:18.531Z,84.20
2017-12-31T05:40:46.138Z,84.10
2017-12-31T05:43:13.751Z,84.70
2017-12-31T05:45:42.099Z,85.10
2017-12-31T05:48:09.719Z,85.10
2017-12-31T05:50:37.314Z,85.10
2017-12-31T05:53:05.721Z,85.00
2017-12-31T05:55:34.490Z,84.80
2017-12-31T05:58:02.073Z,85.10
2017-12-31T06:00:29.678Z,85.10
2017-12-31T06:02:57.252Z,85.40
2017-12-31T06:05:24.865Z,85.50
2017-12-31T06:07:52.456Z,84.90
2017-12-31T06:10:20.051Z,85.10
2017-12-31T06:12:47.671Z,84.60
2017-12-31T06:15:15.348Z,84.70
2017-12-31T06:17:42.957Z,84.90
2017-12-31T06:20:11.331Z,85.20
2017-12-31T06:22:38.947Z,85.20
2017-12-31T06:25:06.536Z,85.50
2017-12-31T06:27:34.736Z,85.60
2017-12-31T06:30:02.365Z,86.00
2017-12-31T06:32:29.942Z,85.80
2017-12-31T06:34:57.549Z,86.60
2017-12-31T06:37:25.140Z,86.80
2017-12-31T06:39:52.750Z,86.90
2017-12-31T06:42:20.345Z,86.50
2017-12-31T06:44:47.932Z,86.20
2017-12-31T06:47:15.547Z,86.30
2017-12-31T06:49:43.172Z,86.90
2017-12-31T06:52:10.762Z,86.00
2017-12-31T06:54:38.356Z,86.20
2017-12-31T06:57:05.940Z,86.60
2017-12-31T06:59:34.867Z,86.80
2017-12-31T07:02:02.469Z,87.30
2017-12-31T07:04:30.084Z,87.70
2017-12-31T07:06:57.674Z,88.30
2017-12-31T07:09:25.304Z,88.10
2017-12-31T07:11:52.910Z,88.70
2017-12-31T07:14:20.508Z,88.80
2017-12-31T07:16:48.114Z,89.10
2017-12-31T07:19:15.690Z,89.30
2017-12-31T07:21:43.319Z,89.10
2017-12-31T07:24:11.676Z,89.30
2017-12-31T07:26:39.318Z,89.30
2017-12-31T07:29:07.689Z,89.80
2017-12-31T07:31:35.274Z,89.80
2017-12-31T07:34:03.409Z,90.00
2017-12-31T07:36:31.756Z,90.60
2017-12-31T07:38:59.570Z,90.50
2017-12-31T07:41:27.156Z,90.60
2017-12-31T07:43:54.738Z,90.70
2017-12-31T07:46:22.351Z,90.70
2017-12-31T07:48:49.936Z,91.10
2017-12-31T07:51:17.536Z,91.00
2017-12-31T07:53:46.109Z,91.40
2017-12-31T07:56:13.721Z,91.40
2017-12-31T07:58:42.574Z,91.40
2017-12-31T08:01:10.159Z,91.60
2017-12-31T08:03:37.809Z,91.90
2017-12-31T08:06:05.389Z,91.70
2017-12-31T08:08:32.986Z,92.20
2017-12-31T08:11:01.328Z,92.30
2017-12-31T08:13:29.129Z,92.30
2017-12-31T08:15:56.721Z,92.60
2017-12-31T08:18:25.298Z,93.30
2017-12-31T08:20:52.906Z,92.90
2017-12-31T08:23:20.480Z,93.20
2017-12-31T08:25:48.098Z,93.20
2017-12-31T08:28:15.672Z,93.50
2017-12-31T08:30:43.304Z,93.50
2017-12-31T08:33:11.851Z,94.00
2017-12-31T08:35:39.436Z,93.80
2017-12-31T08:38:07.046Z,93.80
2017-12-31T08:40:35.880Z,94.00
2017-12-31T08:43:04.716Z,94.10
2017-12-31T08:45:32.289Z,94.10
2017-12-31T08:47:59.941Z,94.10
2017-12-31T08:50:27.526Z,94.30
2017-12-31T08:52:55.116Z,94.50
2017-12-31T08:55:22.767Z,94.70
2017-12-31T08:57:50.351Z,95.00
2017-12-31T09:00:17.956Z,95.10
2017-12-31T09:02:45.554Z,95.40
2017-12-31T09:05:13.926Z,95.80
2017-12-31T09:07:41.777Z,95.80
2017-12-31T09:10:09.376Z,95.80
2017-12-31T09:12:37.230Z,95.80
2017-12-31T09:15:05.975Z,95.80
2017-12-31T09:17:34.638Z,95.80
2017-12-31T09:20:02.230Z,95.90
2017-12-31T09:22:29.856Z,95.90
2017-12-31T09:24:57.440Z,95.80
2017-12-31T09:27:25.071Z,95.90
2017-12-31T09:29:52.669Z,96.10
2017-12-31T09:32:20.292Z,96.20
2017-12-31T09:34:47.932Z,96.20
2017-12-31T09:37:15.796Z,96.20
2017-12-31T09:39:43.397Z,96.30
2017-12-31T09:42:11.019Z,96.30
2017-12-31T09:44:38.642Z,96.50
2017-12-31T09:47:06.859Z,96.50
2017-12-31T09:49:35.719Z,96.50
2017-12-31T09:52:04.403Z,96.70
2017-12-31T09:54:32.020Z,96.60
2017-12-31T09:56:59.776Z,96.70
2017-12-31T09:59:27.357Z,97.00
2017-12-31T10:01:55.003Z,96.80
2017-12-31T10:04:22.572Z,97.00
2017-12-31T10:06:50.209Z,97.40
2017-12-31T10:09:18.559Z,97.50
2017-12-31T10:11:46.179Z,97.50
2017-12-31T10:14:13.766Z,97.50
2017-12-31T10:16:41.348Z,97.50
2017-12-31T10:19:08.968Z,97.40
2017-12-31T10:21:36.617Z,97.40
2017-12-31T10:24:05.139Z,97.70
2017-12-31T10:26:34.727Z,97.60
2017-12-31T10:29:02.346Z,97.60
2017-12-31T10:31:29.937Z,97.50
2017-12-31T10:33:57.551Z,97.60
2017-12-31T10:36:25.931Z,97.50
2017-12-31T10:38:54.093Z,97.40
2017-12-31T10:41:21.746Z,97.60
2017-12-31T10:43:49.338Z,97.50
2017-12-31T10:46:17.724Z,97.70
2017-12-31T10:48:45.319Z,97.60
2017-12-31T10:51:12.902Z,97.60
2017-12-31T10:53:40.528Z,97.50
2017-12-31T10:56:08.102Z,97.60
2017-12-31T10:58:36.471Z,97.50
2017-12-31T11:01:04.049Z,97.40
2017-12-31T11:03:31.672Z,97.30
2017-12-31T11:06:00.036Z,97.40
2017-12-31T11:08:27.618Z,97.40
2017-12-31T11:10:55.227Z,97.40
2017-12-31T11:13:22.805Z,97.40
2017-12-31T11:15:50.427Z,97.30
2017-12-31T11:18:18.792Z,97.20
2017-12-31T11:20:46.413Z,97.20
2017-12-31T11:23:14.759Z,97.20
2017-12-31T11:25:42.371Z,97.20
2017-12-31T11:28:09.987Z,97.10
2017-12-31T11:30:37.583Z,96.40
2017-12-31T11:33:05.202Z,96.10
2017-12-31T11:35:33.811Z,96.10
2017-12-31T11:38:01.477Z,96.10
2017-12-31T11:40:29.075Z,95.80
2017-12-31T11:42:57.421Z,95.10
2017-12-31T11:45:25.067Z,95.00
2017-12-31T11:47:53.441Z,94.90
2017-12-31T11:50:21.074Z,94.90
2017-12-31T11:52:48.661Z,94.80
2017-12-31T11:55:16.310Z,94.60
2017-12-31T11:57:43.900Z,94.50
2017-12-31T12:00:11.487Z,94.40
2017-12-31T12:02:39.093Z,94.30
2017-12-31T12:05:07.458Z,94.20
2017-12-31T12:07:35.079Z,94.20
2017-12-31T12:10:03.871Z,94.30
2017-12-31T12:12:31.591Z,94.00
2017-12-31T12:14:59.192Z,94.20
2017-12-31T12:17:26.767Z,94.00
2017-12-31T12:19:54.386Z,93.90
2017-12-31T12:22:21.977Z,93.90
2017-12-31T12:24:49.590Z,93.90
2017-12-31T12:27:17.186Z,93.70
2017-12-31T12:29:44.805Z,93.80
2017-12-31T12:32:12.388Z,93.70
2017-12-31T12:34:39.999Z,93.60
2017-12-31T12:37:07.613Z,93.30
2017-12-31T12:39:35.228Z,93.30
2017-12-31T12:42:03.590Z,93.40
2017-12-31T12:44:31.396Z,93.50
2017-12-31T12:46:59.019Z,93.10
2017-12-31T12:49:26.619Z,92.80
2017-12-31T12:51:54.242Z,92.50
2017-12-31T12:54:21.870Z,92.30
2017-12-31T12:56:49.450Z,92.40
2017-12-31T12:59:17.057Z,92.20
2017-12-31T13:01:44.656Z,92.00
2017-12-31T13:04:12.278Z,91.80
2017-12-31T13:06:40.630Z,91.20
2017-12-31T13:09:08.211Z,91.20
2017-12-31T13:11:35.822Z,90.90
2017-12-31T13:14:05.062Z,90.80
2017-12-31T13:16:33.880Z,90.80
2017-12-31T13:19:01.590Z,90.80
2017-12-31T13:21:29.974Z,90.80
2017-12-31T13:23:57.554Z,90.80
2017-12-31T13:26:25.168Z,90.30
2017-12-31T13:28:53.537Z,89.90
2017-12-31T13:31:21.146Z,89.90
2017-12-31T13:33:48.789Z,89.60
2017-12-31T13:36:16.380Z,90.00
2017-12-31T13:38:44.003Z,89.40
2017-12-31T13:41:11.599Z,89.00
2017-12-31T13:43:39.178Z,89.20
2017-12-31T13:46:06.780Z,88.70
2017-12-31T13:48:35.523Z,87.50
2017-12-31T13:51:04.171Z,87.30
2017-12-31T13:53:31.767Z,86.50
2017-12-31T13:55:59.391Z,86.00
2017-12-31T13:58:27.746Z,86.90
2017-12-31T14:00:55.322Z,86.80
2017-12-31T14:03:22.946Z,86.00
2017-12-31T14:05:50.543Z,85.40
2017-12-31T14:08:18.164Z,85.50
2017-12-31T14:10:45.744Z,85.70
2017-12-31T14:13:14.086Z,85.20
2017-12-31T14:15:41.709Z,85.20
2017-12-31T14:18:10.098Z,85.30
2017-12-31T14:20:37.727Z,86.00
2017-12-31T14:23:06.125Z,84.80
2017-12-31T14:25:35.324Z,85.30
2017-12-31T14:28:02.975Z,85.20
2017-12-31T14:30:30.580Z,85.20
2017-12-31T14:32:58.214Z,84.50
2017-12-31T14:35:25.811Z,84.10
2017-12-31T14:37:53.459Z,83.60
2017-12-31T14:40:21.079Z,83.00
2017-12-31T14:42:48.674Z,83.00
2017-12-31T14:45:16.294Z,83.10
2017-12-31T14:47:43.877Z,82.80
2017-12-31T14:50:11.498Z,82.70
2017-12-31T14:52:39.086Z,82.70
2017-12-31T14:55:06.740Z,82.90
2017-12-31T14:57:35.480Z,82.80
2017-12-31T15:00:03.075Z,82.80
2017-12-31T15:02:30.713Z,82.60
2017-12-31T15:04:59.086Z,80.80
2017-12-31T15:07:26.746Z,80.70
2017-12-31T15:09:54.325Z,81.10
2017-12-31T15:12:21.961Z,81.10
2017-12-31T15:14:49.546Z,81.00
2017-12-31T15:17:17.130Z,80.80
2017-12-31T15:19:44.747Z,81.20
2017-12-31T15:22:12.343Z,80.90
2017-12-31T15:24:39.957Z,80.60
2017-12-31T15:27:07.536Z,80.70
2017-12-31T15:29:35.156Z,80.80
2017-12-31T15:32:03.525Z,80.90
2017-12-31T15:34:31.123Z,80.30
2017-12-31T15:36:58.761Z,80.00
2017-12-31T15:39:26.364Z,80.10
2017-12-31T15:41:54.766Z,81.20
2017-12-31T15:44:23.118Z,80.40
2017-12-31T15:46:50.735Z,80.30
2017-12-31T15:49:18.322Z,80.00
2017-12-31T15:51:46.489Z,79.90
2017-12-31T15:54:14.118Z,80.60
2017-12-31T15:56:41.732Z,80.70
2017-12-31T15:59:09.371Z,80.30
2017-12-31T16:01:36.964Z,80.30
2017-12-31T16:04:05.148Z,80.10
2017-12-31T16:06:33.811Z,80.10
2017-12-31T16:09:01.389Z,80.20
2017-12-31T16:11:29.006Z,80.70
2017-12-31T16:13:56.605Z,80.80
2017-12-31T16:16:25.031Z,80.60
2017-12-31T16:18:52.629Z,80.50
2017-12-31T16:21:20.210Z,80.40
2017-12-31T16:23:47.825Z,80.80
2017-12-31T16:26:15.423Z,80.00
2017-12-31T16:28:43.041Z,79.90
2017-12-31T16:31:10.662Z,80.40
2017-12-31T16:33:38.277Z,80.70
2017-12-31T16:36:05.870Z,80.60
2017-12-31T16:38:34.028Z,80.70
2017-12-31T16:41:01.642Z,80.00
2017-12-31T16:43:29.242Z,80.50
2017-12-31T16:45:56.864Z,80.70
2017-12-31T16:48:24.448Z,81.20
2017-12-31T16:50:52.068Z,81.40
2017-12-31T16:53:19.663Z,81.50
2017-12-31T16:55:47.255Z,81.70
2017-12-31T16:58:14.861Z,82.20
2017-12-31T17:00:42.452Z,82.90
2017-12-31T17:03:10.061Z,83.30
2017-12-31T17:05:37.642Z,83.40
2017-12-31T17:08:05.261Z,83.30
2017-12-31T17:10:33.581Z,83.20
2017-12-31T17:13:01.169Z,83.20
2017-12-31T17:15:28.783Z,82.90
2017-12-31T17:17:56.405Z,82.90
2017-12-31T17:20:24.014Z,82.80
2017-12-31T17:22:51.646Z,83.20
2017-12-31T17:25:19.253Z,83.40
2017-12-31T17:27:46.840Z,84.20
2017-12-31T17:30:14.434Z,82.90
2017-12-31T17:32:42.055Z,83.60
2017-12-31T17:35:09.645Z,83.40
2017-12-31T17:37:37.274Z,83.30
2017-12-31T17:40:05.538Z,83.00
2017-12-31T17:42:34.767Z,83.40
2017-12-31T17:45:06.718Z,83.90
2017-12-31T17:47:35.366Z,84.30
2017-12-31T17:50:03.463Z,83.60
2017-12-31T17:52:31.051Z,83.20
2017-12-31T17:54:58.673Z,83.80
2017-12-31T17:57:26.245Z,83.60
2017-12-31T17:59:53.832Z,83.20
2017-12-31T18:02:21.454Z,83.80
2017-12-31T18:04:49.038Z,83.80
2017-12-31T18:07:16.655Z,84.20
2017-12-31T18:09:45.010Z,84.20
2017-12-31T18:12:12.646Z,84.10
2017-12-31T18:14:41.005Z,85.00
2017-12-31T18:17:08.610Z,84.90
2017-12-31T18:19:36.278Z,85.40
2017-12-31T18:22:05.913Z,85.60
2017-12-31T18:24:34.953Z,85.50
2017-12-31T18:27:02.573Z,85.80
2017-12-31T18:29:30.955Z,85.40
2017-12-31T18:31:58.544Z,85.30
2017-12-31T18:34:26.134Z,84.90
2017-12-31T18:36:53.826Z,85.40
2017-12-31T18:39:21.389Z,85.20
2017-12-31T18:41:49.003Z,84.50
2017-12-31T18:44:17.349Z,84.90
2017-12-31T18:46:44.957Z,84.90
2017-12-31T18:49:12.540Z,84.90
2017-12-31T18:51:40.113Z,84.30
2017-12-31T18:54:07.734Z,83.90
2017-12-31T18:56:35.331Z,84.00
2017-12-31T18:59:03.672Z,83.70
2017-12-31T19:01:31.326Z,83.90
2017-12-31T19:03:58.947Z,84.00
2017-12-31T19:06:26.544Z,84.30
2017-12-31T19:08:54.127Z,84.50
2017-12-31T19:11:21.730Z,84.70
2017-12-31T19:13:49.322Z,84.10
2017-12-31T19:16:16.942Z,83.80
2017-12-31T19:18:44.522Z,83.80
2017-12-31T19:21:12.130Z,84.40
2017-12-31T19:23:40.529Z,84.60
2017-12-31T19:26:08.100Z,84.60
2017-12-31T19:28:35.701Z,85.20
2017-12-31T19:31:04.378Z,84.10
2017-12-31T19:33:31.986Z,84.30
2017-12-31T19:35:59.587Z,84.10
2017-12-31T19:38:27.206Z,83.90
2017-12-31T19:40:54.797Z,84.10
2017-12-31T19:43:22.389Z,84.30
2017-12-31T19:45:50.018Z,84.00
2017-12-31T19:48:17.654Z,83.60
2017-12-31T19:50:45.262Z,83.40
2017-12-31T19:53:12.873Z,83.70
2017-12-31T19:55:40.495Z,83.20
2017-12-31T19:58:08.846Z,83.80
2017-12-31T20:00:36.420Z,83.80
2017-12-31T20:03:04.042Z,83.90
2017-12-31T20:05:31.714Z,83.30
2017-12-31T20:07:59.393Z,83.00
2017-12-31T20:10:27.009Z,82.20
2017-12-31T20:12:54.617Z,82.50
2017-12-31T20:15:22.209Z,83.10
2017-12-31T20:17:49.809Z,82.90
2017-12-31T20:20:17.404Z,83.20
2017-12-31T20:22:45.019Z,83.30
2017-12-31T20:25:13.393Z,83.70
2017-12-31T20:27:41.014Z,83.70
2017-12-31T20:30:08.669Z,83.40
2017-12-31T20:32:36.298Z,83.60
2017-12-31T20:35:09.763Z,82.90
2017-12-31T20:37:37.411Z,82.50
2017-12-31T20:40:05.758Z,82.40
2017-12-31T20:42:34.346Z,82.50
2017-12-31T20:45:03.610Z,81.60
2017-12-31T20:47:31.202Z,81.60
2017-12-31T20:49:59.557Z,81.20
2017-12-31T20:52:27.170Z,81.20
2017-12-31T20:54:54.763Z,81.30
2017-12-31T20:57:22.377Z,81.00
2017-12-31T20:59:49.969Z,81.60
2017-12-31T21:02:17.540Z,81.60
2017-12-31T21:04:45.716Z,82.60
2017-12-31T21:07:14.074Z,81.40
2017-12-31T21:09:41.685Z,81.40
2017-12-31T21:12:10.037Z,81.20
2017-12-31T21:14:38.418Z,81.30
2017-12-31T21:17:06.010Z,81.30
2017-12-31T21:19:34.563Z,81.30
2017-12-31T21:22:02.169Z,81.00
2017-12-31T21:24:29.758Z,81.00
2017-12-31T21:26:57.360Z,80.50
2017-12-31T21:29:24.941Z,80.50
2017-12-31T21:31:52.545Z,81.50
2017-12-31T21:34:20.128Z,80.20
2017-12-31T21:36:48.477Z,78.80
2017-12-31T21:39:16.095Z,78.70
2017-12-31T21:41:43.664Z,78.10
2017-12-31T21:44:11.275Z,77.70
2017-12-31T21:46:38.902Z,77.80
2017-12-31T21:49:06.531Z,76.80
2017-12-31T21:51:35.075Z,76.40
2017-12-31T21:54:03.457Z,77.20
2017-12-31T21:56:31.079Z,77.10
2017-12-31T21:58:58.653Z,76.50
2017-12-31T22:01:26.222Z,76.70
2017-12-31T22:03:54.604Z,76.90
2017-12-31T22:06:23.358Z,77.20
2017-12-31T22:08:50.979Z,77.80
2017-12-31T22:11:19.332Z,78.20
2017-12-31T22:13:46.952Z,77.70
2017-12-31T22:16:14.534Z,78.20
2017-12-31T22:18:42.240Z,78.50
2017-12-31T22:21:09.858Z,78.70
2017-12-31T22:23:37.444Z,78.70
2017-12-31T22:26:05.055Z,78.40
2017-12-31T22:28:32.633Z,78.50
2017-12-31T22:31:01.124Z,78.60
2017-12-31T22:33:28.716Z,78.60
2017-12-31T22:35:57.098Z,78.40
2017-12-31T22:38:25.452Z,78.60
2017-12-31T22:40:53.802Z,77.90
2017-12-31T22:43:21.411Z,77.80
2017-12-31T22:45:49.010Z,78.40
2017-12-31T22:48:16.617Z,78.60
2017-12-31T22:50:44.209Z,78.10
2017-12-31T22:53:11.826Z,78.90
2017-12-31T22:55:39.401Z,78.30
2017-12-31T22:58:07.147Z,78.10
2017-12-31T23:00:35.326Z,78.30
2017-12-31T23:03:03.519Z,78.40
2017-12-31T23:05:31.131Z,78.20
2017-12-31T23:07:58.707Z,78.10
2017-12-31T23:10:26.350Z,77.30
2017-12-31T23:12:53.935Z,77.70
2017-12-31T23:15:22.307Z,77.60
2017-12-31T23:17:49.942Z,77.60
2017-12-31T23:20:17.551Z,78.00
2017-12-31T23:22:45.147Z,77.10
2017-12-31T23:25:12.763Z,77.40
2017-12-31T23:27:40.346Z,77.80
2017-12-31T23:30:08.696Z,77.80
2017-12-31T23:32:36.343Z,77.80
2017-12-31T23:35:05.770Z,77.50
2017-12-31T23:37:34.286Z,77.50
2017-12-31T23:40:01.941Z,77.70
2017-12-31T23:42:29.563Z,77.70
2017-12-31T23:44:57.153Z,76.90
2017-12-31T23:47:24.775Z,76.30
2017-12-31T23:49:52.369Z,76.40
2017-12-31T23:52:20.071Z,76.60
2017-12-31T23:54:47.695Z,76.50
2017-12-31T23:57:15.304Z,76.10
2017-12-31T23:59:42.925Z,76.60
